createdAt,value
2019-04-07T00:01:31.825Z,26.43
2019-04-07T00:04:01.158Z,27.83
2019-04-07T00:06:30.663Z,27.27
2019-04-07T00:09:00.515Z,27.20
2019-04-07T00:11:32.424Z,27.00
2019-04-07T00:14:01.772Z,26.30
2019-04-07T00:16:31.051Z,26.03
2019-04-07T00:19:00.323Z,27.00
2019-04-07T00:21:30.104Z,26.93
2019-04-07T00:24:01.739Z,26.03
2019-04-07T00:26:30.453Z,27.93
2019-04-07T00:29:00.287Z,26.63
2019-04-07T00:31:29.880Z,25.80
2019-04-07T00:33:59.380Z,25.43
2019-04-07T00:36:28.765Z,26.30
2019-04-07T00:38:58.012Z,26.70
2019-04-07T00:41:27.520Z,26.57
2019-04-07T00:43:57.202Z,26.97
2019-04-07T00:46:26.837Z,27.17
2019-04-07T00:48:56.250Z,25.57
2019-04-07T00:51:25.633Z,26.77
2019-04-07T00:53:54.893Z,26.10
2019-04-07T00:56:24.699Z,25.80
2019-04-07T00:58:54.555Z,26.17
2019-04-07T01:01:24.458Z,26.63
2019-04-07T01:03:54.493Z,26.37
2019-04-07T01:06:24.161Z,25.80
2019-04-07T01:08:53.699Z,26.33
2019-04-07T01:11:23.142Z,27.23
2019-04-07T01:13:52.797Z,25.93
2019-04-07T01:16:22.189Z,26.00
2019-04-07T01:18:51.971Z,27.57
2019-04-07T01:21:21.314Z,25.80
2019-04-07T01:23:51.062Z,27.03
2019-04-07T01:26:20.432Z,26.67
2019-04-07T01:28:49.706Z,26.00
2019-04-07T01:31:19.952Z,25.37
2019-04-07T01:33:49.360Z,27.17
2019-04-07T01:36:18.869Z,26.50
2019-04-07T01:38:48.627Z,25.77
2019-04-07T01:41:22.851Z,26.17
2019-04-07T01:44:05.886Z,26.10
2019-04-07T01:46:37.070Z,26.43
2019-04-07T01:49:17.095Z,26.20
2019-04-07T01:51:53.826Z,25.40
2019-04-07T01:54:37.229Z,25.63
2019-04-07T01:57:14.644Z,25.20
2019-04-07T01:59:45.544Z,25.00
2019-04-07T02:02:36.615Z,25.27
2019-04-07T02:05:20.956Z,25.33
2019-04-07T02:08:07.760Z,25.60
2019-04-07T02:10:55.164Z,25.07
2019-04-07T02:13:26.453Z,26.33
2019-04-07T02:16:00.354Z,26.63
2019-04-07T02:18:48.114Z,25.13
2019-04-07T02:21:35.996Z,24.70
2019-04-07T02:24:07.127Z,26.23
2019-04-07T02:26:54.474Z,24.83
2019-04-07T02:29:43.431Z,26.00
2019-04-07T02:32:23.393Z,23.50
2019-04-07T02:35:00.057Z,25.87
2019-04-07T02:37:33.504Z,26.40
2019-04-07T02:40:07.509Z,26.60
2019-04-07T02:42:50.678Z,25.83
2019-04-07T02:45:36.713Z,24.67
2019-04-07T02:48:07.657Z,26.23
2019-04-07T02:50:50.931Z,25.30
2019-04-07T02:53:24.637Z,26.40
2019-04-07T02:56:08.078Z,24.53
2019-04-07T02:58:57.076Z,24.83
2019-04-07T03:01:45.346Z,24.43
2019-04-07T03:04:16.388Z,25.77
2019-04-07T03:07:02.753Z,26.30
2019-04-07T03:09:40.034Z,26.00
2019-04-07T03:12:10.956Z,26.83
2019-04-07T03:14:58.674Z,26.17
2019-04-07T03:17:32.469Z,24.47
2019-04-07T03:20:21.455Z,24.60
2019-04-07T03:23:10.591Z,26.13
2019-04-07T03:25:47.002Z,27.23
2019-04-07T03:28:34.625Z,26.07
2019-04-07T03:31:12.850Z,27.70
2019-04-07T03:33:54.398Z,28.50
2019-04-07T03:36:30.262Z,28.80
2019-04-07T03:39:04.119Z,28.13
2019-04-07T03:41:35.139Z,28.77
2019-04-07T03:44:07.610Z,28.63
2019-04-07T03:46:38.933Z,29.07
2019-04-07T03:49:10.052Z,29.27
2019-04-07T03:51:44.066Z,28.73
2019-04-07T03:54:21.134Z,29.33
2019-04-07T03:56:56.403Z,29.80
2019-04-07T03:59:27.604Z,27.27
2019-04-07T04:02:01.206Z,29.80
2019-04-07T04:04:32.316Z,29.53
2019-04-07T04:07:20.191Z,28.87
2019-04-07T04:09:42.821Z,28.00
2019-04-07T04:12:19.882Z,27.93
2019-04-07T04:14:54.734Z,27.40
2019-04-07T04:17:25.005Z,28.40
2019-04-07T04:19:55.180Z,28.97
2019-04-07T04:22:24.585Z,28.70
2019-04-07T04:24:53.889Z,28.53
2019-04-07T04:27:23.851Z,28.10
2019-04-07T04:29:53.867Z,27.97
2019-04-07T04:32:25.573Z,28.67
2019-04-07T04:34:56.227Z,29.40
2019-04-07T04:37:37.559Z,28.43
2019-04-07T04:39:57.431Z,29.03
2019-04-07T04:42:28.876Z,27.67
2019-04-07T04:44:58.850Z,27.23
2019-04-07T04:47:28.348Z,28.67
2019-04-07T04:49:57.834Z,29.60
2019-04-07T04:52:27.747Z,28.23
2019-04-07T04:54:57.195Z,28.13
2019-04-07T04:57:27.131Z,30.13
2019-04-07T04:59:56.466Z,28.47
2019-04-07T05:02:25.807Z,28.80
2019-04-07T05:04:55.084Z,27.67
2019-04-07T05:07:26.274Z,27.77
2019-04-07T05:09:56.678Z,27.13
2019-04-07T05:12:26.124Z,27.77
2019-04-07T05:14:55.950Z,28.30
2019-04-07T05:17:25.951Z,27.60
2019-04-07T05:19:55.503Z,28.57
2019-04-07T05:22:24.796Z,27.40
2019-04-07T05:24:54.076Z,27.23
2019-04-07T05:27:23.919Z,26.40
2019-04-07T05:29:54.539Z,27.13
2019-04-07T05:32:24.497Z,27.20
2019-04-07T05:34:54.485Z,27.57
2019-04-07T05:37:25.406Z,29.13
2019-04-07T05:39:55.017Z,27.70
2019-04-07T05:42:24.662Z,29.40
2019-04-07T05:44:53.972Z,29.30
2019-04-07T05:47:23.249Z,30.10
2019-04-07T05:49:57.367Z,30.43
2019-04-07T05:52:23.961Z,31.10
2019-04-07T05:54:53.412Z,32.40
2019-04-07T05:57:22.835Z,28.93
2019-04-07T05:59:52.099Z,31.40
2019-04-07T06:02:21.381Z,31.63
2019-04-07T06:04:51.285Z,30.87
2019-04-07T06:07:21.253Z,30.73
2019-04-07T06:09:52.754Z,30.07
2019-04-07T06:12:23.575Z,31.60
2019-04-07T06:14:52.856Z,31.83
2019-04-07T06:17:25.651Z,32.13
2019-04-07T06:19:53.336Z,32.93
2019-04-07T06:22:23.469Z,30.97
2019-04-07T06:24:52.926Z,31.77
2019-04-07T06:27:22.782Z,31.13
2019-04-07T06:29:56.738Z,31.47
2019-04-07T06:32:23.515Z,31.87
2019-04-07T06:34:53.065Z,30.50
2019-04-07T06:37:25.805Z,30.93
2019-04-07T06:39:53.660Z,30.77
2019-04-07T06:42:22.992Z,31.17
2019-04-07T06:44:52.846Z,29.83
2019-04-07T06:47:24.920Z,30.00
2019-04-07T06:50:14.203Z,28.93
2019-04-07T06:53:00.884Z,30.00
2019-04-07T06:55:37.897Z,29.17
2019-04-07T06:58:12.051Z,27.93
2019-04-07T07:00:49.262Z,28.47
2019-04-07T07:03:38.100Z,29.03
2019-04-07T07:06:08.454Z,29.70
2019-04-07T07:08:56.622Z,29.30
2019-04-07T07:11:31.099Z,28.53
2019-04-07T07:14:31.378Z,27.80
2019-04-07T07:16:50.048Z,27.30
2019-04-07T07:19:30.011Z,27.20
2019-04-07T07:22:06.466Z,30.47
2019-04-07T07:24:34.890Z,30.73
2019-04-07T07:27:08.518Z,31.97
2019-04-07T07:29:36.388Z,31.63
2019-04-07T07:32:06.404Z,31.80
2019-04-07T07:34:35.880Z,30.77
2019-04-07T07:37:05.357Z,33.07
2019-04-07T07:39:35.095Z,32.10
2019-04-07T07:42:04.472Z,31.77
2019-04-07T07:44:36.089Z,29.57
2019-04-07T07:47:04.732Z,29.77
2019-04-07T07:49:36.072Z,29.50
2019-04-07T07:52:05.069Z,28.47
2019-04-07T07:54:35.136Z,31.50
2019-04-07T07:57:04.951Z,31.93
2019-04-07T07:59:38.062Z,29.60
2019-04-07T08:02:05.269Z,29.77
2019-04-07T08:04:34.631Z,30.43
2019-04-07T08:07:04.322Z,31.00
2019-04-07T08:09:33.681Z,29.40
2019-04-07T08:12:03.541Z,28.73
2019-04-07T08:14:33.072Z,30.43
2019-04-07T08:17:03.614Z,27.93
2019-04-07T08:19:33.339Z,27.13
2019-04-07T08:22:03.060Z,26.33
2019-04-07T08:24:32.719Z,25.43
2019-04-07T08:27:02.238Z,25.77
2019-04-07T08:29:32.307Z,26.80
2019-04-07T08:32:02.070Z,25.17
2019-04-07T08:34:32.908Z,25.20
2019-04-07T08:37:02.798Z,24.00
2019-04-07T08:39:35.491Z,24.50
2019-04-07T08:42:09.555Z,23.80
2019-04-07T08:44:35.448Z,22.50
2019-04-07T08:47:05.038Z,23.10
2019-04-07T08:49:35.324Z,22.17
2019-04-07T08:52:09.097Z,19.97
2019-04-07T08:54:36.804Z,20.23
2019-04-07T08:57:07.002Z,18.90
2019-04-07T08:59:39.791Z,17.63
2019-04-07T09:02:07.631Z,16.53
2019-04-07T09:04:37.059Z,16.43
2019-04-07T09:07:06.431Z,16.40
2019-04-07T09:09:37.534Z,13.47
2019-04-07T09:12:07.114Z,13.83
2019-04-07T09:14:38.737Z,12.53
2019-04-07T09:17:09.446Z,11.87
2019-04-07T09:19:49.643Z,11.60
2019-04-07T09:22:33.024Z,11.40
2019-04-07T09:25:19.340Z,11.23
2019-04-07T09:27:51.143Z,11.33
2019-04-07T09:30:35.592Z,10.80
2019-04-07T09:33:07.104Z,10.97
2019-04-07T09:35:56.850Z,11.20
2019-04-07T09:38:42.278Z,10.43
2019-04-07T09:41:29.816Z,10.07
2019-04-07T09:44:05.156Z,9.30
2019-04-07T09:46:36.629Z,8.40
2019-04-07T09:49:10.192Z,8.03
2019-04-07T09:51:53.863Z,8.33
2019-04-07T09:54:25.177Z,8.13
2019-04-07T09:56:56.235Z,7.30
2019-04-07T09:59:27.188Z,7.40
2019-04-07T10:02:00.288Z,7.67
2019-04-07T10:04:42.244Z,7.70
2019-04-07T10:07:16.027Z,7.03
2019-04-07T10:10:12.466Z,7.13
2019-04-07T10:12:53.286Z,6.50
2019-04-07T10:15:42.177Z,7.17
2019-04-07T10:18:19.215Z,7.40
2019-04-07T10:21:08.820Z,7.10
2019-04-07T10:23:49.697Z,6.70
2019-04-07T10:26:27.351Z,4.83
2019-04-07T10:28:58.280Z,5.20
2019-04-07T10:31:31.687Z,5.10
2019-04-07T10:34:03.070Z,5.10
2019-04-07T10:36:40.737Z,5.10
2019-04-07T10:39:14.336Z,5.47
2019-04-07T10:41:51.164Z,4.97
2019-04-07T10:44:38.653Z,4.87
2019-04-07T10:47:09.629Z,5.00
2019-04-07T10:49:57.547Z,5.17
2019-04-07T10:52:19.705Z,4.70
2019-04-07T10:54:53.636Z,12.37
2019-04-07T10:57:27.841Z,13.27
2019-04-07T11:00:11.005Z,7.50
2019-04-07T11:02:44.786Z,22.17
2019-04-07T11:05:22.813Z,12.27
2019-04-07T11:08:10.621Z,4.90
2019-04-07T11:10:41.954Z,8.03
2019-04-07T11:13:29.921Z,9.30
2019-04-07T11:16:00.897Z,9.27
2019-04-07T11:18:32.502Z,5.63
2019-04-07T11:21:19.908Z,5.27
2019-04-07T11:23:50.845Z,5.20
2019-04-07T11:26:21.936Z,5.60
2019-04-07T11:29:02.745Z,4.37
2019-04-07T11:31:42.888Z,4.87
2019-04-07T11:34:25.793Z,5.40
2019-04-07T11:37:02.583Z,4.57
2019-04-07T11:39:33.492Z,4.80
2019-04-07T11:42:10.328Z,5.27
2019-04-07T11:44:41.259Z,4.13
2019-04-07T11:47:12.163Z,4.00
2019-04-07T11:49:55.416Z,4.30
2019-04-07T11:52:35.335Z,4.10
2019-04-07T11:55:12.343Z,4.10
2019-04-07T11:58:06.634Z,4.50
2019-04-07T12:00:41.528Z,4.27
2019-04-07T12:03:24.815Z,5.17
2019-04-07T12:06:13.592Z,4.77
2019-04-07T12:08:57.885Z,4.73
2019-04-07T12:11:32.691Z,4.67
2019-04-07T12:14:10.606Z,5.03
2019-04-07T12:17:02.330Z,4.83
2019-04-07T12:19:32.074Z,4.70
2019-04-07T12:22:14.139Z,5.30
2019-04-07T12:24:45.556Z,5.07
2019-04-07T12:27:31.528Z,4.67
2019-04-07T12:30:11.449Z,5.17
2019-04-07T12:32:45.468Z,4.37
2019-04-07T12:35:19.513Z,5.17
2019-04-07T12:38:12.334Z,4.37
2019-04-07T12:40:48.583Z,4.50
2019-04-07T12:43:27.201Z,4.70
2019-04-07T12:46:07.384Z,4.67
2019-04-07T12:48:54.311Z,4.67
2019-04-07T12:51:28.858Z,4.40
2019-04-07T12:54:13.119Z,4.60
2019-04-07T12:56:44.531Z,4.43
2019-04-07T12:59:16.900Z,4.27
2019-04-07T13:01:49.622Z,4.33
2019-04-07T13:04:26.613Z,4.93
2019-04-07T13:06:57.796Z,4.80
2019-04-07T13:09:34.697Z,4.17
2019-04-07T13:12:11.911Z,4.60
2019-04-07T13:14:43.928Z,4.50
2019-04-07T13:17:20.650Z,4.30
2019-04-07T13:20:07.331Z,4.90
2019-04-07T13:22:39.394Z,4.03
2019-04-07T13:25:21.089Z,4.50
2019-04-07T13:28:06.465Z,4.77
2019-04-07T13:30:37.509Z,4.50
2019-04-07T13:33:29.168Z,4.47
2019-04-07T13:36:17.889Z,4.90
2019-04-07T13:39:00.924Z,5.07
2019-04-07T13:41:42.603Z,4.83
2019-04-07T13:44:14.944Z,4.80
2019-04-07T13:47:07.244Z,4.23
2019-04-07T13:49:42.673Z,4.53
2019-04-07T13:52:19.380Z,4.37
2019-04-07T13:54:51.533Z,4.10
2019-04-07T13:57:26.080Z,4.53
2019-04-07T14:00:06.437Z,5.10
2019-04-07T14:02:46.411Z,4.43
2019-04-07T14:05:21.222Z,4.70
2019-04-07T14:08:01.244Z,4.33
2019-04-07T14:10:37.161Z,4.23
2019-04-07T14:13:17.051Z,4.13
2019-04-07T14:15:48.522Z,4.50
2019-04-07T14:18:34.592Z,4.27
2019-04-07T14:21:22.728Z,4.00
2019-04-07T14:24:00.456Z,4.60
2019-04-07T14:26:34.635Z,4.50
2019-04-07T14:29:09.016Z,4.37
2019-04-07T14:31:46.156Z,4.43
2019-04-07T14:34:20.633Z,4.47
2019-04-07T14:36:52.404Z,4.83
2019-04-07T14:39:29.400Z,4.80
2019-04-07T14:42:15.180Z,4.43
2019-04-07T14:45:01.300Z,5.17
2019-04-07T14:47:32.459Z,4.57
2019-04-07T14:50:06.855Z,5.23
2019-04-07T14:52:47.168Z,5.57
2019-04-07T14:55:35.498Z,4.97
2019-04-07T14:58:23.080Z,4.90
2019-04-07T15:01:02.566Z,4.93
2019-04-07T15:03:30.993Z,5.00
2019-04-07T15:06:01.370Z,4.83
2019-04-07T15:08:48.668Z,6.27
2019-04-07T15:11:19.621Z,5.90
2019-04-07T15:13:49.440Z,6.57
2019-04-07T15:16:19.576Z,6.20
2019-04-07T15:18:48.999Z,5.83
2019-04-07T15:21:18.838Z,6.33
2019-04-07T15:23:48.242Z,5.40
2019-04-07T15:26:17.990Z,6.30
2019-04-07T15:28:47.368Z,5.80
2019-04-07T15:31:18.370Z,5.87
2019-04-07T15:33:47.884Z,5.90
2019-04-07T15:36:18.780Z,5.53
2019-04-07T15:38:48.662Z,5.63
2019-04-07T15:41:19.167Z,6.70
2019-04-07T15:43:48.937Z,6.30
2019-04-07T15:46:19.565Z,6.47
2019-04-07T15:48:49.980Z,6.53
2019-04-07T15:51:19.628Z,6.37
2019-04-07T15:53:51.602Z,6.30
2019-04-07T15:56:21.313Z,6.60
2019-04-07T15:58:51.510Z,6.97
2019-04-07T16:01:21.722Z,6.77
2019-04-07T16:03:53.424Z,6.57
2019-04-07T16:06:22.144Z,6.57
2019-04-07T16:08:51.415Z,7.33
2019-04-07T16:11:25.645Z,6.40
2019-04-07T16:13:52.670Z,6.87
2019-04-07T16:16:22.886Z,6.50
2019-04-07T16:18:52.940Z,7.30
2019-04-07T16:21:22.247Z,5.97
2019-04-07T16:23:53.959Z,6.53
2019-04-07T16:26:22.519Z,7.63
2019-04-07T16:28:52.005Z,7.00
2019-04-07T16:31:24.261Z,7.30
2019-04-07T16:33:52.931Z,7.80
2019-04-07T16:36:24.536Z,7.27
2019-04-07T16:38:54.926Z,7.20
2019-04-07T16:41:25.962Z,7.40
2019-04-07T16:43:56.297Z,7.50
2019-04-07T16:46:25.609Z,7.10
2019-04-07T16:48:55.588Z,7.30
2019-04-07T16:51:28.793Z,8.03
2019-04-07T16:53:58.086Z,7.63
2019-04-07T16:56:27.653Z,7.47
2019-04-07T16:58:56.952Z,8.03
2019-04-07T17:01:26.641Z,8.10
2019-04-07T17:03:57.580Z,7.63
2019-04-07T17:06:31.850Z,7.70
2019-04-07T17:08:59.148Z,8.53
2019-04-07T17:11:28.951Z,8.23
2019-04-07T17:14:01.106Z,7.93
2019-04-07T17:16:29.490Z,7.93
2019-04-07T17:18:58.887Z,8.80
2019-04-07T17:21:29.846Z,9.57
2019-04-07T17:24:01.248Z,8.80
2019-04-07T17:26:30.826Z,9.03
2019-04-07T17:29:01.181Z,8.77
2019-04-07T17:31:32.202Z,9.53
2019-04-07T17:34:04.579Z,9.00
2019-04-07T17:36:32.775Z,9.00
2019-04-07T17:39:08.512Z,9.07
2019-04-07T17:41:49.470Z,9.03
2019-04-07T17:44:23.377Z,8.73
2019-04-07T17:46:57.867Z,9.30
2019-04-07T17:49:34.270Z,9.23
2019-04-07T17:52:11.287Z,8.97
2019-04-07T17:54:45.237Z,9.97
2019-04-07T17:57:19.160Z,9.33
2019-04-07T17:59:55.919Z,9.00
2019-04-07T18:02:32.269Z,9.33
2019-04-07T18:05:22.024Z,9.00
2019-04-07T18:07:54.429Z,9.10
2019-04-07T18:10:37.593Z,9.73
2019-04-07T18:13:38.293Z,9.30
2019-04-07T18:15:59.865Z,9.73
2019-04-07T18:18:37.801Z,9.40
2019-04-07T18:21:16.861Z,9.67
2019-04-07T18:23:55.690Z,9.40
2019-04-07T18:26:26.315Z,9.50
2019-04-07T18:29:00.369Z,10.00
2019-04-07T18:31:37.642Z,10.57
2019-04-07T18:34:15.645Z,10.00
2019-04-07T18:36:47.105Z,10.27
2019-04-07T18:39:24.124Z,10.07
2019-04-07T18:42:14.182Z,10.27
2019-04-07T18:44:55.953Z,9.80
2019-04-07T18:47:27.382Z,10.27
2019-04-07T18:50:16.744Z,9.67
2019-04-07T18:52:53.243Z,10.43
2019-04-07T18:55:39.334Z,9.80
2019-04-07T18:58:28.635Z,10.20
2019-04-07T19:01:17.000Z,10.23
2019-04-07T19:03:53.260Z,10.40
2019-04-07T19:06:30.142Z,10.30
2019-04-07T19:09:01.563Z,11.37
2019-04-07T19:11:46.321Z,11.87
2019-04-07T19:14:33.570Z,13.67
2019-04-07T19:16:58.627Z,13.30
2019-04-07T19:19:29.817Z,12.73
2019-04-07T19:22:18.497Z,13.10
2019-04-07T19:25:04.563Z,14.30
2019-04-07T19:27:42.724Z,14.30
2019-04-07T19:30:15.356Z,14.17
2019-04-07T19:32:46.876Z,14.20
2019-04-07T19:35:38.239Z,14.95
2019-04-07T19:38:09.337Z,12.80
2019-04-07T19:40:40.278Z,13.53
2019-04-07T19:43:14.683Z,13.37
2019-04-07T19:45:54.550Z,12.57
2019-04-07T19:48:27.385Z,12.33
2019-04-07T19:51:04.231Z,12.63
2019-04-07T19:53:51.497Z,12.37
2019-04-07T19:56:23.460Z,12.93
2019-04-07T19:59:00.134Z,13.37
2019-04-07T20:01:48.004Z,11.87
2019-04-07T20:04:18.937Z,13.07
2019-04-07T20:07:08.004Z,11.87
2019-04-07T20:09:44.122Z,12.43
2019-04-07T20:12:23.841Z,12.83
2019-04-07T20:15:08.115Z,12.73
2019-04-07T20:17:37.621Z,11.97
2019-04-07T20:20:10.829Z,12.60
2019-04-07T20:22:56.454Z,13.40
2019-04-07T20:25:26.769Z,13.30
2019-04-07T20:27:59.364Z,13.20
2019-04-07T20:30:39.645Z,14.50
2019-04-07T20:33:16.447Z,14.40
2019-04-07T20:35:59.269Z,13.90
2019-04-07T20:38:30.196Z,15.40
2019-04-07T20:41:15.506Z,16.13
2019-04-07T20:44:04.048Z,17.23
2019-04-07T20:46:38.069Z,16.33
2019-04-07T20:49:17.967Z,15.47
2019-04-07T20:51:54.297Z,16.97
2019-04-07T20:54:26.954Z,17.77
2019-04-07T20:57:19.582Z,19.77
2019-04-07T20:59:55.032Z,19.07
2019-04-07T21:02:39.931Z,19.73
2019-04-07T21:05:22.492Z,20.67
2019-04-07T21:07:52.415Z,20.57
2019-04-07T21:10:26.354Z,21.27
2019-04-07T21:12:57.357Z,19.80
2019-04-07T21:15:44.714Z,20.63
2019-04-07T21:18:31.378Z,19.10
2019-04-07T21:21:00.946Z,20.77
2019-04-07T21:23:41.240Z,18.90
2019-04-07T21:26:12.309Z,18.73
2019-04-07T21:29:02.342Z,17.90
2019-04-07T21:31:33.429Z,18.03
2019-04-07T21:34:05.149Z,17.17
2019-04-07T21:36:41.135Z,17.57
2019-04-07T21:39:29.526Z,17.33
2019-04-07T21:42:05.601Z,17.43
2019-04-07T21:44:48.819Z,18.13
2019-04-07T21:47:31.747Z,18.30
2019-04-07T21:50:11.894Z,18.70
2019-04-07T21:52:58.088Z,19.30
2019-04-07T21:55:32.917Z,19.27
2019-04-07T21:58:07.185Z,19.70
2019-04-07T22:00:39.095Z,21.10
2019-04-07T22:03:26.902Z,20.50
2019-04-07T22:06:09.664Z,20.17
2019-04-07T22:08:49.762Z,20.47
2019-04-07T22:11:22.586Z,21.93
2019-04-07T22:13:50.112Z,21.20
2019-04-07T22:16:21.810Z,20.83
2019-04-07T22:18:51.212Z,20.83
2019-04-07T22:21:22.365Z,21.00
2019-04-07T22:23:51.556Z,20.33
2019-04-07T22:26:20.852Z,21.77
2019-04-07T22:28:50.115Z,19.80
2019-04-07T22:31:25.137Z,19.97
2019-04-07T22:33:57.430Z,19.57
2019-04-07T22:36:27.267Z,18.57
2019-04-07T22:38:59.766Z,18.83
2019-04-07T22:41:28.186Z,18.83
2019-04-07T22:43:57.568Z,18.13
2019-04-07T22:46:27.366Z,16.90
2019-04-07T22:48:58.440Z,17.67
2019-04-07T22:51:28.539Z,18.30
2019-04-07T22:53:58.852Z,18.33
2019-04-07T22:56:28.332Z,18.53
2019-04-07T22:58:57.608Z,17.93
2019-04-07T23:01:27.215Z,18.53
2019-04-07T23:03:56.724Z,18.90
2019-04-07T23:06:26.626Z,17.17
2019-04-07T23:08:56.034Z,17.60
2019-04-07T23:11:25.793Z,18.53
2019-04-07T23:13:55.508Z,18.33
2019-04-07T23:16:24.865Z,19.63
2019-04-07T23:18:54.210Z,19.37
2019-04-07T23:21:23.560Z,19.57
2019-04-07T23:23:53.595Z,19.27
2019-04-07T23:26:22.913Z,20.33
2019-04-07T23:28:52.194Z,20.63
2019-04-07T23:31:21.548Z,20.67
2019-04-07T23:33:50.824Z,20.73
2019-04-07T23:36:20.126Z,20.57
2019-04-07T23:38:49.641Z,20.20
2019-04-07T23:41:18.944Z,19.87
2019-04-07T23:43:48.216Z,20.07
2019-04-07T23:46:23.593Z,22.60
2019-04-07T23:48:48.484Z,21.60
2019-04-07T23:51:18.587Z,23.67
2019-04-07T23:54:10.988Z,23.43
2019-04-07T23:56:41.777Z,23.17
2019-04-07T23:59:11.121Z,22.60
